createdAt,value
2018-08-06T00:00:45.503Z,944.46
2018-08-06T00:01:53.506Z,944.43
2018-08-06T00:03:01.677Z,944.46
2018-08-06T00:04:09.643Z,944.40
2018-08-06T00:05:17.974Z,944.42
2018-08-06T00:06:25.846Z,944.42
2018-08-06T00:07:33.859Z,944.35
2018-08-06T00:08:41.948Z,944.34
2018-08-06T00:09:50.584Z,944.32
2018-08-06T00:10:58.519Z,944.32
2018-08-06T00:12:06.668Z,944.28
2018-08-06T00:13:14.651Z,944.27
2018-08-06T00:14:22.730Z,944.31
2018-08-06T00:15:30.792Z,944.28
2018-08-06T00:16:39.261Z,944.32
2018-08-06T00:17:46.977Z,944.31
2018-08-06T00:18:55.092Z,944.28
2018-08-06T00:20:03.064Z,944.28
2018-08-06T00:21:11.139Z,944.25
2018-08-06T00:22:19.345Z,944.24
2018-08-06T00:23:27.289Z,944.22
2018-08-06T00:24:35.323Z,944.22
2018-08-06T00:25:43.523Z,944.23
2018-08-06T00:26:51.499Z,944.24
2018-08-06T00:27:59.697Z,944.18
2018-08-06T00:29:07.648Z,944.18
2018-08-06T00:30:15.732Z,944.19
2018-08-06T00:31:23.781Z,944.18
2018-08-06T00:32:32.002Z,944.18
2018-08-06T00:33:39.934Z,944.19
2018-08-06T00:34:48.383Z,944.16
2018-08-06T00:35:56.070Z,944.14
2018-08-06T00:37:04.235Z,944.14
2018-08-06T00:38:12.312Z,944.12
2018-08-06T00:39:20.295Z,944.13
2018-08-06T00:40:28.361Z,944.07
2018-08-06T00:41:36.784Z,944.06
2018-08-06T00:42:44.790Z,944.09
2018-08-06T00:43:52.674Z,944.06
2018-08-06T00:45:00.651Z,944.09
2018-08-06T00:46:08.713Z,944.05
2018-08-06T00:47:16.799Z,944.01
2018-08-06T00:48:24.857Z,944.02
2018-08-06T00:49:33.045Z,943.98
2018-08-06T00:50:41.007Z,943.98
2018-08-06T00:51:49.104Z,944.01
2018-08-06T00:52:57.521Z,943.95
2018-08-06T00:54:05.683Z,944.01
2018-08-06T00:55:13.585Z,943.94
2018-08-06T00:56:21.581Z,943.95
2018-08-06T00:57:29.838Z,943.99
2018-08-06T00:58:37.929Z,944.00
2018-08-06T00:59:45.948Z,943.95
2018-08-06T01:00:54.183Z,943.97
2018-08-06T01:02:02.118Z,943.99
2018-08-06T01:03:10.218Z,943.93
2018-08-06T01:04:18.372Z,943.92
2018-08-06T01:05:26.352Z,943.91
2018-08-06T01:06:34.509Z,943.89
2018-08-06T01:07:42.508Z,943.90
2018-08-06T01:08:50.660Z,943.87
2018-08-06T01:09:58.908Z,943.83
2018-08-06T01:11:06.724Z,943.84
2018-08-06T01:12:14.869Z,943.80
2018-08-06T01:13:22.945Z,943.81
2018-08-06T01:14:30.917Z,943.80
2018-08-06T01:15:38.995Z,943.80
2018-08-06T01:16:47.069Z,943.82
2018-08-06T01:17:55.228Z,943.79
2018-08-06T01:19:03.210Z,943.81
2018-08-06T01:20:11.311Z,943.79
2018-08-06T01:21:19.757Z,943.79
2018-08-06T01:22:27.535Z,943.79
2018-08-06T01:23:35.468Z,943.76
2018-08-06T01:24:43.574Z,943.78
2018-08-06T01:25:51.645Z,943.75
2018-08-06T01:26:59.738Z,943.78
2018-08-06T01:28:07.878Z,943.79
2018-08-06T01:29:15.925Z,943.74
2018-08-06T01:30:23.933Z,943.74
2018-08-06T01:31:32.264Z,943.73
2018-08-06T01:32:40.177Z,943.72
2018-08-06T01:33:48.247Z,943.70
2018-08-06T01:34:56.218Z,943.70
2018-08-06T01:36:04.295Z,943.71
2018-08-06T01:37:14.619Z,943.68
2018-08-06T01:38:20.437Z,943.65
2018-08-06T01:39:32.035Z,943.66
2018-08-06T01:40:36.580Z,943.68
2018-08-06T01:41:44.877Z,943.67
2018-08-06T01:42:52.902Z,943.68
2018-08-06T01:44:01.099Z,943.69
2018-08-06T01:45:09.154Z,943.71
2018-08-06T01:46:17.170Z,943.67
2018-08-06T01:47:25.197Z,943.66
2018-08-06T01:48:33.406Z,943.66
2018-08-06T01:49:41.748Z,943.62
2018-08-06T01:50:49.516Z,943.62
2018-08-06T01:51:57.501Z,943.62
2018-08-06T01:53:05.540Z,943.58
2018-08-06T01:54:13.635Z,943.65
2018-08-06T01:55:21.738Z,943.61
2018-08-06T01:56:29.885Z,943.59
2018-08-06T01:57:37.873Z,943.61
2018-08-06T01:58:46.013Z,943.64
2018-08-06T01:59:54.053Z,943.54
2018-08-06T02:01:02.083Z,943.55
2018-08-06T02:02:10.246Z,943.59
2018-08-06T02:03:18.222Z,943.62
2018-08-06T02:04:26.339Z,943.61
2018-08-06T02:05:34.375Z,943.59
2018-08-06T02:06:42.444Z,943.57
2018-08-06T02:07:50.616Z,943.57
2018-08-06T02:08:58.572Z,943.52
2018-08-06T02:10:06.682Z,943.60
2018-08-06T02:11:14.936Z,943.56
2018-08-06T02:12:23.014Z,943.51
2018-08-06T02:13:31.074Z,943.54
2018-08-06T02:14:39.172Z,943.54
2018-08-06T02:15:47.228Z,943.48
2018-08-06T02:16:55.307Z,943.49
2018-08-06T02:18:03.418Z,943.48
2018-08-06T02:19:11.440Z,943.52
2018-08-06T02:20:19.522Z,943.48
2018-08-06T02:21:27.589Z,943.48
2018-08-06T02:22:35.731Z,943.51
2018-08-06T02:23:43.824Z,943.43
2018-08-06T02:24:51.831Z,943.44
2018-08-06T02:26:00.083Z,943.45
2018-08-06T02:27:11.699Z,943.42
2018-08-06T02:28:16.570Z,943.42
2018-08-06T02:29:27.698Z,943.34
2018-08-06T02:30:32.364Z,943.38
2018-08-06T02:31:40.549Z,943.44
2018-08-06T02:32:48.501Z,943.44
2018-08-06T02:33:56.701Z,943.41
2018-08-06T02:35:04.652Z,943.41
2018-08-06T02:36:12.749Z,943.38
2018-08-06T02:37:20.776Z,943.39
2018-08-06T02:38:28.890Z,943.40
2018-08-06T02:39:37.033Z,943.41
2018-08-06T02:40:45.010Z,943.39
2018-08-06T02:41:53.088Z,943.46
2018-08-06T02:43:01.247Z,943.43
2018-08-06T02:44:09.580Z,943.40
2018-08-06T02:45:17.405Z,943.40
2018-08-06T02:46:25.358Z,943.34
2018-08-06T02:47:33.437Z,943.34
2018-08-06T02:48:41.517Z,943.34
2018-08-06T02:49:49.740Z,943.31
2018-08-06T02:50:57.768Z,943.34
2018-08-06T02:52:05.700Z,943.33
2018-08-06T02:53:13.801Z,943.31
2018-08-06T02:54:21.863Z,943.29
2018-08-06T02:55:29.947Z,943.29
2018-08-06T02:56:38.099Z,943.31
2018-08-06T02:57:46.075Z,943.33
2018-08-06T02:58:54.257Z,943.32
2018-08-06T03:00:02.307Z,943.34
2018-08-06T03:01:10.300Z,943.34
2018-08-06T03:02:18.751Z,943.32
2018-08-06T03:03:26.653Z,943.32
2018-08-06T03:04:35.012Z,943.35
2018-08-06T03:05:42.787Z,943.31
2018-08-06T03:06:50.879Z,943.34
2018-08-06T03:08:04.425Z,943.36
2018-08-06T03:09:07.015Z,943.39
2018-08-06T03:10:15.085Z,943.37
2018-08-06T03:11:23.253Z,943.35
2018-08-06T03:12:31.328Z,943.36
2018-08-06T03:13:39.302Z,943.37
2018-08-06T03:14:47.514Z,943.35
2018-08-06T03:15:55.430Z,943.30
2018-08-06T03:17:03.508Z,943.34
2018-08-06T03:18:11.681Z,943.29
2018-08-06T03:19:19.654Z,943.31
2018-08-06T03:20:27.731Z,943.32
2018-08-06T03:21:39.209Z,943.34
2018-08-06T03:22:43.901Z,943.35
2018-08-06T03:23:53.669Z,943.37
2018-08-06T03:25:00.022Z,943.35
2018-08-06T03:26:08.116Z,943.34
2018-08-06T03:27:16.131Z,943.34
2018-08-06T03:28:24.301Z,943.33
2018-08-06T03:29:32.352Z,943.38
2018-08-06T03:30:40.433Z,943.34
2018-08-06T03:31:48.447Z,943.34
2018-08-06T03:33:01.784Z,943.36
2018-08-06T03:34:04.583Z,943.32
2018-08-06T03:35:12.659Z,943.35
2018-08-06T03:36:20.821Z,943.39
2018-08-06T03:37:28.810Z,943.35
2018-08-06T03:38:37.058Z,943.38
2018-08-06T03:39:44.956Z,943.36
2018-08-06T03:40:54.743Z,943.36
2018-08-06T03:42:01.121Z,943.41
2018-08-06T03:43:09.218Z,943.39
2018-08-06T03:44:17.294Z,943.37
2018-08-06T03:45:25.296Z,943.41
2018-08-06T03:46:33.380Z,943.39
2018-08-06T03:47:41.648Z,943.39
2018-08-06T03:48:49.602Z,943.44
2018-08-06T03:49:57.962Z,943.46
2018-08-06T03:51:05.655Z,943.45
2018-08-06T03:52:13.867Z,943.40
2018-08-06T03:53:21.806Z,943.43
2018-08-06T03:54:29.896Z,943.43
2018-08-06T03:55:38.048Z,943.44
2018-08-06T03:56:46.025Z,943.47
2018-08-06T03:57:54.095Z,943.47
2018-08-06T03:59:02.179Z,943.42
2018-08-06T04:00:10.244Z,943.46
2018-08-06T04:01:18.584Z,943.41
2018-08-06T04:02:26.383Z,943.44
2018-08-06T04:03:34.535Z,943.44
2018-08-06T04:04:42.560Z,943.46
2018-08-06T04:05:50.592Z,943.49
2018-08-06T04:06:58.777Z,943.47
2018-08-06T04:08:06.834Z,943.49
2018-08-06T04:09:14.831Z,943.49
2018-08-06T04:10:24.065Z,943.50
2018-08-06T04:11:31.263Z,943.50
2018-08-06T04:12:39.524Z,943.45
2018-08-06T04:13:47.099Z,943.45
2018-08-06T04:14:55.157Z,943.54
2018-08-06T04:16:03.970Z,943.50
2018-08-06T04:17:11.291Z,943.50
2018-08-06T04:18:19.500Z,943.51
2018-08-06T04:19:27.437Z,943.51
2018-08-06T04:20:35.508Z,943.52
2018-08-06T04:21:43.577Z,943.54
2018-08-06T04:22:51.965Z,943.52
2018-08-06T04:24:00.017Z,943.55
2018-08-06T04:25:08.007Z,943.58
2018-08-06T04:26:16.308Z,943.59
2018-08-06T04:27:24.155Z,943.55
2018-08-06T04:28:32.323Z,943.52
2018-08-06T04:29:40.307Z,943.47
2018-08-06T04:30:48.362Z,943.51
2018-08-06T04:31:56.626Z,943.50
2018-08-06T04:33:04.693Z,943.53
2018-08-06T04:34:13.237Z,943.53
2018-08-06T04:35:21.410Z,943.58
2018-08-06T04:36:28.912Z,943.58
2018-08-06T04:37:36.963Z,943.57
2018-08-06T04:38:45.038Z,943.56
2018-08-06T04:39:53.206Z,943.58
2018-08-06T04:41:01.187Z,943.59
2018-08-06T04:42:09.261Z,943.55
2018-08-06T04:43:17.372Z,943.57
2018-08-06T04:44:25.471Z,943.56
2018-08-06T04:45:33.562Z,943.58
2018-08-06T04:46:41.654Z,943.56
2018-08-06T04:47:49.609Z,943.56
2018-08-06T04:48:57.688Z,943.58
2018-08-06T04:50:05.726Z,943.56
2018-08-06T04:51:15.490Z,943.55
2018-08-06T04:52:21.922Z,943.51
2018-08-06T04:53:29.972Z,943.50
2018-08-06T04:54:38.166Z,943.53
2018-08-06T04:55:46.304Z,943.56
2018-08-06T04:56:54.193Z,943.55
2018-08-06T04:58:02.543Z,943.54
2018-08-06T04:59:10.546Z,943.58
2018-08-06T05:00:18.596Z,943.55
2018-08-06T05:01:26.783Z,943.59
2018-08-06T05:02:34.933Z,943.57
2018-08-06T05:03:43.016Z,943.63
2018-08-06T05:04:52.256Z,943.67
2018-08-06T05:05:59.055Z,943.66
2018-08-06T05:07:07.221Z,943.68
2018-08-06T05:08:15.081Z,943.67
2018-08-06T05:09:23.149Z,943.68
2018-08-06T05:10:31.242Z,943.74
2018-08-06T05:11:39.296Z,943.69
2018-08-06T05:12:47.425Z,943.72
2018-08-06T05:13:55.518Z,943.77
2018-08-06T05:15:03.517Z,943.75
2018-08-06T05:16:14.968Z,943.76
2018-08-06T05:17:19.653Z,943.80
2018-08-06T05:18:31.596Z,943.82
2018-08-06T05:19:35.781Z,943.85
2018-08-06T05:20:43.922Z,943.89
2018-08-06T05:21:51.961Z,943.89
2018-08-06T05:23:00.306Z,943.90
2018-08-06T05:24:08.292Z,943.90
2018-08-06T05:25:16.388Z,943.92
2018-08-06T05:26:24.448Z,943.91
2018-08-06T05:27:32.633Z,943.89
2018-08-06T05:28:40.586Z,943.90
2018-08-06T05:29:54.009Z,943.86
2018-08-06T05:30:56.726Z,943.89
2018-08-06T05:32:05.147Z,943.88
2018-08-06T05:33:12.984Z,943.89
2018-08-06T05:34:20.956Z,943.93
2018-08-06T05:35:29.026Z,943.89
2018-08-06T05:36:37.092Z,943.91
2018-08-06T05:37:45.159Z,943.91
2018-08-06T05:38:53.326Z,943.95
2018-08-06T05:40:04.756Z,943.98
2018-08-06T05:41:09.470Z,943.93
2018-08-06T05:42:17.472Z,943.96
2018-08-06T05:43:25.502Z,943.97
2018-08-06T05:44:33.701Z,944.00
2018-08-06T05:45:41.867Z,943.97
2018-08-06T05:46:50.037Z,944.04
2018-08-06T05:47:57.838Z,944.01
2018-08-06T05:49:05.938Z,944.04
2018-08-06T05:50:14.069Z,944.03
2018-08-06T05:51:22.139Z,944.06
2018-08-06T05:52:30.113Z,944.09
2018-08-06T05:53:38.363Z,944.09
2018-08-06T05:54:46.251Z,944.09
2018-08-06T05:55:54.432Z,944.09
2018-08-06T05:57:02.441Z,944.11
2018-08-06T05:58:10.536Z,944.13
2018-08-06T05:59:18.860Z,944.09
2018-08-06T06:00:26.625Z,944.11
2018-08-06T06:01:35.152Z,944.11
2018-08-06T06:02:43.438Z,944.14
2018-08-06T06:03:51.152Z,944.11
2018-08-06T06:04:59.275Z,944.15
2018-08-06T06:06:06.993Z,944.10
2018-08-06T06:07:15.158Z,944.12
2018-08-06T06:08:26.658Z,944.09
2018-08-06T06:09:31.212Z,944.10
2018-08-06T06:10:42.694Z,944.12
2018-08-06T06:11:47.350Z,944.15
2018-08-06T06:12:58.872Z,944.17
2018-08-06T06:14:03.500Z,944.15
2018-08-06T06:15:11.602Z,944.15
2018-08-06T06:16:19.652Z,944.19
2018-08-06T06:17:27.848Z,944.20
2018-08-06T06:18:35.797Z,944.26
2018-08-06T06:19:43.916Z,944.20
2018-08-06T06:20:51.979Z,944.18
2018-08-06T06:22:00.128Z,944.19
2018-08-06T06:23:08.151Z,944.16
2018-08-06T06:24:16.295Z,944.14
2018-08-06T06:25:24.259Z,944.13
2018-08-06T06:26:32.392Z,944.18
2018-08-06T06:27:40.500Z,944.21
2018-08-06T06:28:48.485Z,944.24
2018-08-06T06:29:56.977Z,944.29
2018-08-06T06:31:04.637Z,944.31
2018-08-06T06:32:12.711Z,944.27
2018-08-06T06:33:20.917Z,944.27
2018-08-06T06:34:28.886Z,944.21
2018-08-06T06:35:36.921Z,944.22
2018-08-06T06:36:44.994Z,944.23
2018-08-06T06:37:53.136Z,944.22
2018-08-06T06:39:01.262Z,944.27
2018-08-06T06:40:09.305Z,944.24
2018-08-06T06:41:17.311Z,944.28
2018-08-06T06:42:25.371Z,944.26
2018-08-06T06:43:33.460Z,944.24
2018-08-06T06:44:41.657Z,944.23
2018-08-06T06:45:49.596Z,944.25
2018-08-06T06:46:57.740Z,944.26
2018-08-06T06:48:05.727Z,944.27
2018-08-06T06:49:13.894Z,944.21
2018-08-06T06:50:21.931Z,944.25
2018-08-06T06:51:29.994Z,944.21
2018-08-06T06:52:38.057Z,944.19
2018-08-06T06:53:46.122Z,944.25
2018-08-06T06:54:54.298Z,944.22
2018-08-06T06:56:02.290Z,944.24
2018-08-06T06:57:10.345Z,944.23
2018-08-06T06:58:18.814Z,944.28
2018-08-06T06:59:26.706Z,944.26
2018-08-06T07:00:34.892Z,944.24
2018-08-06T07:01:42.849Z,944.22
2018-08-06T07:02:50.958Z,944.22
2018-08-06T07:03:59.001Z,944.25
2018-08-06T07:05:07.162Z,944.29
2018-08-06T07:06:15.284Z,944.30
2018-08-06T07:07:23.221Z,944.30
2018-08-06T07:08:31.295Z,944.32
2018-08-06T07:09:39.364Z,944.35
2018-08-06T07:10:47.451Z,944.38
2018-08-06T07:11:55.599Z,944.42
2018-08-06T07:13:03.609Z,944.43
2018-08-06T07:14:11.772Z,944.43
2018-08-06T07:15:19.772Z,944.40
2018-08-06T07:16:27.832Z,944.39
2018-08-06T07:17:35.954Z,944.41
2018-08-06T07:18:43.967Z,944.41
2018-08-06T07:19:53.671Z,944.49
2018-08-06T07:21:02.935Z,944.54
2018-08-06T07:22:11.025Z,944.48
2018-08-06T07:23:19.182Z,944.58
2018-08-06T07:24:27.155Z,944.67
2018-08-06T07:25:35.237Z,944.60
2018-08-06T07:26:43.300Z,944.73
2018-08-06T07:27:51.378Z,944.67
2018-08-06T07:28:59.557Z,944.73
2018-08-06T07:30:07.630Z,944.61
2018-08-06T07:31:15.581Z,944.61
2018-08-06T07:32:23.699Z,945.20
2018-08-06T07:33:31.769Z,945.82
2018-08-06T07:34:39.935Z,945.55
2018-08-06T07:35:47.951Z,945.39
2018-08-06T07:36:56.019Z,945.18
2018-08-06T07:38:04.063Z,945.79
2018-08-06T07:39:12.142Z,946.16
2018-08-06T07:40:20.438Z,946.05
2018-08-06T07:41:28.355Z,945.89
2018-08-06T07:42:36.453Z,946.07
2018-08-06T07:43:44.480Z,946.56
2018-08-06T07:44:52.547Z,946.66
2018-08-06T07:46:00.859Z,946.72
2018-08-06T07:47:08.759Z,946.85
2018-08-06T07:48:17.039Z,946.95
2018-08-06T07:49:24.960Z,946.92
2018-08-06T07:50:32.942Z,947.25
2018-08-06T07:51:41.113Z,947.30
2018-08-06T07:52:49.103Z,947.28
2018-08-06T07:53:57.200Z,947.40
2018-08-06T07:55:05.259Z,947.36
2018-08-06T07:56:13.344Z,947.64
2018-08-06T07:57:21.527Z,947.82
2018-08-06T07:59:45.062Z,947.48
2018-08-06T08:00:53.133Z,947.35
2018-08-06T08:02:01.821Z,947.72
2018-08-06T08:03:09.349Z,947.72
2018-08-06T08:04:17.379Z,947.92
2018-08-06T08:05:27.675Z,948.50
2018-08-06T08:06:35.727Z,948.41
2018-08-06T08:07:43.899Z,948.96
2018-08-06T08:08:51.950Z,948.39
2018-08-06T08:10:00.326Z,948.68
2018-08-06T08:11:08.105Z,948.67
2018-08-06T08:12:17.429Z,948.75
2018-08-06T08:13:24.424Z,949.39
2018-08-06T08:14:35.630Z,949.93
2018-08-06T08:15:40.445Z,949.99
2018-08-06T08:16:51.949Z,950.00
2018-08-06T08:17:56.902Z,949.98
2018-08-06T08:19:04.812Z,950.64
2018-08-06T08:20:12.954Z,950.44
2018-08-06T08:21:20.863Z,950.56
2018-08-06T08:22:28.947Z,950.67
2018-08-06T08:23:37.041Z,951.90
2018-08-06T08:24:45.176Z,952.18
2018-08-06T08:25:53.533Z,951.33
2018-08-06T08:27:01.271Z,951.86
2018-08-06T08:28:09.416Z,951.63
2018-08-06T08:29:17.442Z,951.66
2018-08-06T08:30:25.601Z,952.51
2018-08-06T08:31:33.608Z,950.82
2018-08-06T08:32:41.705Z,950.85
2018-08-06T08:33:49.819Z,950.83
2018-08-06T08:34:57.871Z,950.96
2018-08-06T08:36:06.088Z,949.92
2018-08-06T08:37:14.044Z,950.34
2018-08-06T08:38:22.116Z,950.81
2018-08-06T08:39:30.315Z,950.75
2018-08-06T08:40:38.301Z,951.64
2018-08-06T08:41:46.471Z,951.97
2018-08-06T08:42:54.481Z,952.01
2018-08-06T08:44:02.660Z,952.09
2018-08-06T08:45:10.656Z,951.08
2018-08-06T08:46:19.056Z,950.24
2018-08-06T08:47:27.380Z,950.82
2018-08-06T08:48:35.077Z,952.00
2018-08-06T08:49:43.518Z,952.57
2018-08-06T08:50:51.254Z,952.61
2018-08-06T08:51:59.362Z,951.98
2018-08-06T08:53:07.472Z,951.69
2018-08-06T08:54:15.530Z,951.22
2018-08-06T08:55:24.087Z,949.20
2018-08-06T08:56:31.679Z,948.88
2018-08-06T08:57:39.810Z,949.06
2018-08-06T08:58:49.857Z,947.95
2018-08-06T08:59:56.104Z,949.84
2018-08-06T09:01:04.232Z,949.91
2018-08-06T09:02:12.307Z,950.35
2018-08-06T09:03:20.584Z,949.21
2018-08-06T09:04:28.488Z,947.24
2018-08-06T09:05:40.212Z,946.68
2018-08-06T09:06:44.646Z,946.49
2018-08-06T09:07:56.141Z,947.98
2018-08-06T09:09:00.848Z,948.15
2018-08-06T09:10:08.917Z,947.54
2018-08-06T09:11:16.970Z,946.69
2018-08-06T09:12:25.080Z,947.10
2018-08-06T09:13:33.247Z,947.36
2018-08-06T09:14:41.260Z,946.46
2018-08-06T09:15:49.314Z,945.73
2018-08-06T09:16:57.475Z,944.85
2018-08-06T09:18:05.467Z,944.52
2018-08-06T09:19:13.675Z,944.49
2018-08-06T09:20:21.650Z,944.44
2018-08-06T09:21:29.756Z,944.34
2018-08-06T09:22:38.462Z,944.41
2018-08-06T09:23:46.605Z,944.35
2018-08-06T09:24:54.634Z,944.40
2018-08-06T09:26:02.940Z,944.37
2018-08-06T09:27:10.761Z,944.29
2018-08-06T09:28:18.907Z,944.23
2018-08-06T09:29:27.340Z,944.19
2018-08-06T09:30:35.028Z,944.22
2018-08-06T09:31:43.089Z,944.16
2018-08-06T09:32:51.177Z,944.10
2018-08-06T09:33:59.405Z,944.15
2018-08-06T09:35:07.451Z,944.10
2018-08-06T09:36:15.596Z,944.11
2018-08-06T09:37:23.703Z,944.20
2018-08-06T09:38:31.774Z,944.16
2018-08-06T09:39:39.896Z,944.19
2018-08-06T09:40:47.957Z,944.18
2018-08-06T09:41:56.262Z,944.12
2018-08-06T09:43:04.113Z,944.13
2018-08-06T09:44:12.181Z,944.07
2018-08-06T09:45:20.361Z,944.03
2018-08-06T09:46:28.530Z,943.99
2018-08-06T09:47:39.982Z,944.01
2018-08-06T09:48:45.044Z,943.94
2018-08-06T09:49:56.334Z,943.90
2018-08-06T09:51:00.967Z,943.90
2018-08-06T09:52:10.151Z,943.88
2018-08-06T09:53:19.510Z,943.89
2018-08-06T09:54:27.511Z,943.91
2018-08-06T09:55:36.421Z,943.88
2018-08-06T09:56:43.849Z,943.84
2018-08-06T09:57:51.925Z,943.82
2018-08-06T09:59:00.056Z,943.87
2018-08-06T10:00:08.147Z,943.86
2018-08-06T10:01:16.179Z,943.87
2018-08-06T10:02:24.265Z,943.82
2018-08-06T10:03:32.347Z,943.82
2018-08-06T10:04:40.405Z,943.79
2018-08-06T10:05:48.612Z,943.79
2018-08-06T10:06:56.582Z,943.80
2018-08-06T10:08:04.842Z,943.76
2018-08-06T10:09:12.832Z,943.77
2018-08-06T10:10:20.820Z,943.74
2018-08-06T10:11:28.938Z,943.74
2018-08-06T10:12:37.229Z,943.69
2018-08-06T10:13:45.060Z,943.67
2018-08-06T10:14:53.131Z,943.65
2018-08-06T10:16:01.318Z,943.61
2018-08-06T10:17:09.284Z,943.56
2018-08-06T10:18:20.756Z,943.57
2018-08-06T10:19:25.450Z,943.62
2018-08-06T10:20:33.820Z,943.51
2018-08-06T10:21:41.688Z,943.48
2018-08-06T10:22:53.098Z,943.52
2018-08-06T10:23:57.769Z,943.47
2018-08-06T10:25:06.158Z,943.48
2018-08-06T10:26:13.928Z,943.45
2018-08-06T10:27:22.229Z,943.43
2018-08-06T10:28:30.239Z,943.42
2018-08-06T10:29:38.291Z,943.43
2018-08-06T10:30:46.249Z,943.43
2018-08-06T10:31:54.340Z,943.46
2018-08-06T10:33:02.452Z,943.46
2018-08-06T10:34:10.588Z,943.49
2018-08-06T10:35:18.620Z,943.45
2018-08-06T10:36:26.661Z,943.44
2018-08-06T10:37:34.834Z,943.37
2018-08-06T10:38:42.854Z,943.35
2018-08-06T10:39:51.150Z,943.37
2018-08-06T10:40:58.953Z,943.35
2018-08-06T10:42:07.074Z,943.40
2018-08-06T10:43:15.203Z,943.34
2018-08-06T10:44:23.431Z,943.31
2018-08-06T10:45:31.475Z,943.28
2018-08-06T10:46:39.578Z,943.25
2018-08-06T10:47:47.749Z,943.32
2018-08-06T10:48:55.917Z,943.32
2018-08-06T10:50:04.010Z,943.26
2018-08-06T10:51:12.114Z,943.29
2018-08-06T10:52:20.166Z,943.26
2018-08-06T10:53:28.309Z,943.25
2018-08-06T10:54:36.319Z,943.26
2018-08-06T10:55:44.677Z,943.23
2018-08-06T10:56:52.478Z,943.19
2018-08-06T10:58:00.667Z,943.24
2018-08-06T10:59:08.749Z,943.26
2018-08-06T11:00:16.740Z,943.24
2018-08-06T11:01:24.826Z,943.22
2018-08-06T11:02:32.925Z,943.21
2018-08-06T11:03:41.266Z,943.20
2018-08-06T11:04:49.056Z,943.09
2018-08-06T11:05:57.324Z,943.16
2018-08-06T11:07:05.203Z,943.18
2018-08-06T11:08:13.288Z,943.16
2018-08-06T11:09:21.880Z,943.13
2018-08-06T11:10:29.503Z,943.07
2018-08-06T11:11:37.743Z,943.06
2018-08-06T11:12:45.948Z,943.07
2018-08-06T11:13:53.943Z,943.08
2018-08-06T11:15:02.073Z,943.06
2018-08-06T11:16:10.103Z,943.00
2018-08-06T11:17:18.123Z,943.05
2018-08-06T11:18:26.304Z,943.04
2018-08-06T11:19:34.293Z,943.00
2018-08-06T11:20:42.420Z,943.05
2018-08-06T11:21:50.477Z,943.02
2018-08-06T11:22:58.537Z,943.03
2018-08-06T11:24:06.615Z,943.02
2018-08-06T11:25:14.877Z,943.00
2018-08-06T11:26:22.780Z,943.04
2018-08-06T11:27:30.840Z,943.03
2018-08-06T11:28:38.935Z,942.98
2018-08-06T11:29:47.011Z,942.96
2018-08-06T11:30:55.188Z,942.92
2018-08-06T11:32:03.175Z,942.91
2018-08-06T11:33:11.480Z,942.88
2018-08-06T11:34:19.630Z,942.90
2018-08-06T11:35:27.991Z,942.89
2018-08-06T11:36:35.724Z,942.83
2018-08-06T11:37:43.781Z,942.84
2018-08-06T11:38:51.939Z,942.86
2018-08-06T11:40:00.143Z,942.88
2018-08-06T11:41:08.232Z,942.81
2018-08-06T11:42:16.414Z,942.82
2018-08-06T11:43:24.398Z,942.79
2018-08-06T11:44:32.470Z,942.76
2018-08-06T11:45:40.543Z,942.78
2018-08-06T11:46:48.620Z,942.79
2018-08-06T11:47:59.962Z,942.80
2018-08-06T11:49:04.785Z,942.80
2018-08-06T11:50:12.965Z,942.81
2018-08-06T11:51:20.953Z,942.74
2018-08-06T11:52:29.099Z,942.73
2018-08-06T11:53:37.116Z,942.71
2018-08-06T11:54:45.192Z,942.73
2018-08-06T11:55:53.313Z,942.69
2018-08-06T11:57:01.374Z,942.67
2018-08-06T11:58:09.470Z,942.69
2018-08-06T11:59:17.518Z,942.71
2018-08-06T12:00:25.568Z,942.72
2018-08-06T12:01:33.932Z,942.69
2018-08-06T12:02:41.798Z,942.69
2018-08-06T12:03:50.059Z,942.70
2018-08-06T12:04:58.108Z,942.65
2018-08-06T12:06:06.304Z,942.62
2018-08-06T12:07:14.275Z,942.56
2018-08-06T12:08:22.530Z,942.55
2018-08-06T12:09:30.474Z,942.52
2018-08-06T12:10:38.512Z,942.49
2018-08-06T12:11:46.597Z,942.49
2018-08-06T12:12:54.906Z,942.51
2018-08-06T12:14:02.763Z,942.50
2018-08-06T12:15:10.952Z,942.51
2018-08-06T12:16:18.941Z,942.50
2018-08-06T12:17:26.996Z,942.50
2018-08-06T12:18:35.075Z,942.53
2018-08-06T12:19:43.222Z,942.49
2018-08-06T12:20:53.842Z,942.50
2018-08-06T12:21:59.328Z,942.48
2018-08-06T12:23:07.451Z,942.45
2018-08-06T12:24:15.830Z,942.46
2018-08-06T12:25:23.598Z,942.40
2018-08-06T12:26:31.639Z,942.37
2018-08-06T12:27:39.737Z,942.38
2018-08-06T12:28:47.808Z,942.43
2018-08-06T12:29:56.176Z,942.39
2018-08-06T12:31:04.285Z,942.42
2018-08-06T12:32:12.065Z,942.40
2018-08-06T12:33:20.182Z,942.41
2018-08-06T12:34:28.234Z,942.42
2018-08-06T12:35:36.293Z,942.37
2018-08-06T12:36:44.368Z,942.34
2018-08-06T12:37:52.749Z,942.31
2018-08-06T12:39:00.733Z,942.35
2018-08-06T12:40:08.910Z,942.31
2018-08-06T12:41:16.886Z,942.28
2018-08-06T12:42:24.971Z,942.31
2018-08-06T12:43:33.103Z,942.29
2018-08-06T12:44:41.295Z,942.32
2018-08-06T12:45:49.217Z,942.31
2018-08-06T12:47:00.724Z,942.34
2018-08-06T12:48:05.460Z,942.30
2018-08-06T12:49:13.472Z,942.28
2018-08-06T12:50:21.532Z,942.28
2018-08-06T12:51:29.634Z,942.25
2018-08-06T12:52:37.696Z,942.24
2018-08-06T12:53:48.721Z,942.21
2018-08-06T12:54:53.861Z,942.14
2018-08-06T12:56:01.959Z,942.16
2018-08-06T12:57:10.125Z,942.17
2018-08-06T12:58:21.623Z,942.13
2018-08-06T12:59:26.342Z,942.13
2018-08-06T13:00:34.358Z,942.13
2018-08-06T13:01:42.355Z,942.09
2018-08-06T13:02:53.895Z,942.08
2018-08-06T13:03:58.585Z,942.12
2018-08-06T13:05:06.653Z,942.07
2018-08-06T13:06:15.007Z,942.05
2018-08-06T13:07:22.771Z,942.06
2018-08-06T13:08:30.839Z,942.02
2018-08-06T13:09:39.047Z,942.02
2018-08-06T13:10:47.000Z,941.96
2018-08-06T13:11:55.058Z,941.94
2018-08-06T13:13:03.184Z,941.92
2018-08-06T13:14:11.327Z,941.90
2018-08-06T13:15:19.357Z,941.91
2018-08-06T13:16:27.385Z,941.90
2018-08-06T13:17:35.436Z,941.86
2018-08-06T13:18:43.537Z,941.86
2018-08-06T13:19:51.853Z,941.85
2018-08-06T13:20:59.695Z,941.90
2018-08-06T13:22:07.802Z,941.87
2018-08-06T13:23:15.857Z,941.88
2018-08-06T13:24:24.230Z,941.86
2018-08-06T13:25:32.128Z,941.91
2018-08-06T13:26:40.131Z,941.88
2018-08-06T13:27:48.181Z,941.86
2018-08-06T13:28:56.290Z,941.85
2018-08-06T13:30:04.449Z,941.84
2018-08-06T13:31:12.562Z,941.81
2018-08-06T13:32:20.523Z,941.77
2018-08-06T13:33:28.608Z,941.76
2018-08-06T13:34:36.660Z,941.76
2018-08-06T13:35:44.751Z,941.76
2018-08-06T13:36:52.886Z,941.75
2018-08-06T13:38:00.899Z,941.74
2018-08-06T13:39:08.990Z,941.71
2018-08-06T13:40:17.068Z,941.71
2018-08-06T13:41:25.239Z,941.69
2018-08-06T13:42:33.339Z,941.75
2018-08-06T13:43:41.317Z,941.74
2018-08-06T13:44:49.493Z,941.69
2018-08-06T13:46:01.228Z,941.72
2018-08-06T13:47:05.654Z,941.69
2018-08-06T13:48:13.913Z,941.71
2018-08-06T13:49:21.754Z,941.69
2018-08-06T13:50:29.868Z,941.68
2018-08-06T13:51:37.861Z,941.65
2018-08-06T13:52:45.996Z,941.57
2018-08-06T13:53:54.033Z,941.54
2018-08-06T13:55:02.128Z,941.56
2018-08-06T13:56:10.187Z,941.51
2018-08-06T13:57:18.389Z,941.48
2018-08-06T13:58:26.345Z,941.45
2018-08-06T13:59:34.541Z,941.45
2018-08-06T14:00:42.595Z,941.47
2018-08-06T14:01:50.666Z,941.44
2018-08-06T14:02:58.793Z,941.41
2018-08-06T14:04:06.771Z,941.39
2018-08-06T14:05:15.183Z,941.37
2018-08-06T14:06:23.105Z,941.38
2018-08-06T14:07:31.239Z,941.42
2018-08-06T14:08:39.283Z,941.41
2018-08-06T14:09:47.372Z,941.39
2018-08-06T14:10:55.423Z,941.38